Palm Beach, Florida
Current Conditions -  °F | °C
As of 10:53 AM on Saturday 22 Nov 2014 (Local Time) from KPBI Reporting Station
Overcast Overcast  
Wind Chill: 78°   Ceiling: 3300
Heat Index: 80°   Visibility: 10mi
Dew Point: 67°   Wind: 24mph
Humidity: 68%   Direction: 80°E
Pressure: 30.2"   Gusts: 31mph
Location:  26.7°N, 80.04°W
Report Text: KPBI 221553Z 08021G27KT 10SM SCT026 BKN033 OVC042 26/19 A3020 RMK AO2 PK WND 10030/1504 SLP227 T02560194
Loading
Personal Weather Stations






























Interactive Weather Map New forecast layout! Learn more

10-Day Weather Forecast

Advertisements
Track Severe Weather on mobile